Time;durP1;ratioP1;P1;durP2;ratioP2;P2;SDS_P1;SDS_P2;PMS_P1;PMS_P2;Temp;Humidity;BMP_temperature;BMP_pressure;BME280_temperature;BME280_humidity;BME280_pressure;Samples;Min_cycle;Max_cycle;Signal;HPM_P1;HPM_P2
2024/02/13 00:00:55;;;;;;;7.85;3.05;;;6.60;99.90;;;;;;5138374;27;20054;-63
2024/02/13 00:03:22;;;;;;;8.60;3.58;;;6.60;99.90;;;;;;5138562;27;20038;-64
2024/02/13 00:05:48;;;;;;;9.43;3.20;;;6.50;99.90;;;;;;5121402;27;20168;-63
2024/02/13 00:08:14;;;;;;;8.98;3.50;;;6.50;99.90;;;;;;5143542;27;20042;-64
2024/02/13 00:10:42;;;;;;;7.20;3.10;;;6.40;99.90;;;;;;5141117;27;20432;-64
2024/02/13 00:13:08;;;;;;;10.43;3.22;;;6.40;99.90;;;;;;5138023;27;20031;-64
2024/02/13 00:15:37;;;;;;;10.48;3.67;;;6.40;99.90;;;;;;5138307;27;20566;-63
2024/02/13 00:18:03;;;;;;;9.50;3.90;;;6.30;99.90;;;;;;5134574;27;20038;-64
2024/02/13 00:20:29;;;;;;;9.77;3.88;;;6.30;99.90;;;;;;5144339;27;20053;-63
2024/02/13 00:22:56;;;;;;;17.13;4.15;;;6.30;99.90;;;;;;5140139;27;20035;-63
2024/02/13 00:25:22;;;;;;;10.02;3.95;;;6.30;99.90;;;;;;5141146;27;20770;-63
2024/02/13 00:27:48;;;;;;;6.22;4.03;;;6.30;99.90;;;;;;5142342;27;20087;-63
2024/02/13 00:30:14;;;;;;;12.63;3.85;;;6.30;99.90;;;;;;5141284;27;20034;-63
2024/02/13 00:32:40;;;;;;;8.55;3.17;;;6.20;99.90;;;;;;5143999;27;20035;-63
2024/02/13 00:35:09;;;;;;;11.77;3.97;;;6.20;99.90;;;;;;5139877;27;20361;-63
2024/02/13 00:37:37;;;;;;;10.38;3.92;;;6.10;99.90;;;;;;5140376;27;20045;-63
2024/02/13 00:40:05;;;;;;;7.78;4.13;;;6.00;99.90;;;;;;5136515;27;20038;-63
2024/02/13 00:42:35;;;;;;;8.95;4.25;;;6.00;99.90;;;;;;5139407;27;20042;-64
2024/02/13 00:45:05;;;;;;;9.70;4.35;;;6.00;99.90;;;;;;5142286;27;20494;-64
2024/02/13 00:47:31;;;;;;;11.02;4.82;;;6.00;99.90;;;;;;5140577;27;20163;-63
2024/02/13 00:49:58;;;;;;;10.90;4.75;;;6.00;99.90;;;;;;5139491;27;20437;-64
2024/02/13 00:52:25;;;;;;;11.55;5.00;;;5.90;99.90;;;;;;5139308;27;20045;-63
2024/02/13 00:54:51;;;;;;;14.88;6.15;;;5.80;99.90;;;;;;5138199;27;20077;-64
2024/02/13 00:57:16;;;;;;;14.27;5.72;;;5.80;99.90;;;;;;5138928;27;20034;-63
2024/02/13 00:59:43;;;;;;;12.30;5.70;;;5.80;99.90;;;;;;5139150;27;20114;-63
2024/02/13 01:02:08;;;;;;;12.88;6.00;;;5.80;99.90;;;;;;5140202;27;20038;-63
2024/02/13 01:04:34;;;;;;;9.73;6.22;;;5.80;99.90;;;;;;5138754;27;20403;-63
2024/02/13 01:07:01;;;;;;;11.32;6.00;;;5.70;99.90;;;;;;5139091;27;20544;-64
2024/02/13 01:09:26;;;;;;;16.95;7.22;;;5.80;99.90;;;;;;5140389;27;20046;-63
2024/02/13 01:11:52;;;;;;;11.65;6.70;;;5.80;99.90;;;;;;5119557;27;20418;-63
2024/02/13 01:14:18;;;;;;;16.42;7.47;;;5.80;99.90;;;;;;5140180;27;20057;-64
2024/02/13 01:16:44;;;;;;;15.40;7.50;;;5.80;99.90;;;;;;5137348;27;20039;-62
2024/02/13 01:19:12;;;;;;;17.77;8.02;;;5.70;99.90;;;;;;5138823;27;20035;-64
2024/02/13 01:21:37;;;;;;;15.38;8.52;;;5.70;99.90;;;;;;5137977;27;20166;-63
2024/02/13 01:24:03;;;;;;;17.08;9.38;;;5.80;99.90;;;;;;5138948;27;20477;-63
2024/02/13 01:26:29;;;;;;;20.40;9.93;;;5.80;99.90;;;;;;5138290;27;20476;-64
2024/02/13 01:28:55;;;;;;;15.25;9.32;;;5.70;99.90;;;;;;5117606;27;20225;-64
2024/02/13 01:31:21;;;;;;;20.70;9.52;;;5.80;99.90;;;;;;5138177;27;20497;-64
2024/02/13 01:33:46;;;;;;;21.13;9.27;;;5.80;99.90;;;;;;5123706;27;20360;-63
2024/02/13 01:36:12;;;;;;;25.58;11.07;;;5.70;99.90;;;;;;5138610;27;20158;-64
2024/02/13 01:38:38;;;;;;;19.02;9.35;;;5.80;99.90;;;;;;5118927;27;20069;-63
2024/02/13 01:41:04;;;;;;;17.27;10.32;;;5.90;99.90;;;;;;5138239;27;20090;-63
2024/02/13 01:43:33;;;;;;;23.10;10.35;;;5.80;99.90;;;;;;5136011;27;20090;-63
2024/02/13 01:46:06;;;;;;;16.75;9.93;;;5.90;99.90;;;;;;5140201;27;20042;-63
2024/02/13 01:48:32;;;;;;;19.77;10.02;;;5.80;99.90;;;;;;5118520;27;20121;-63
2024/02/13 01:51:00;;;;;;;23.30;10.15;;;5.80;99.90;;;;;;5137918;27;20581;-63
2024/02/13 01:53:28;;;;;;;17.50;10.23;;;5.90;99.90;;;;;;5120157;27;20038;-64
2024/02/13 01:55:56;;;;;;;18.45;9.82;;;5.90;99.90;;;;;;5118891;27;20038;-63
2024/02/13 01:58:23;;;;;;;21.88;10.20;;;5.80;99.90;;;;;;5138424;27;20212;-63
2024/02/13 02:00:59;;;;;;;15.20;9.98;;;5.90;99.90;;;;;;5138318;27;20034;-64
2024/02/13 02:03:31;;;;;;;20.88;10.30;;;5.90;99.90;;;;;;5138340;27;20485;-64
2024/02/13 02:06:01;;;;;;;23.10;10.30;;;5.80;99.90;;;;;;5135343;27;20640;-63
2024/02/13 02:08:27;;;;;;;26.55;10.10;;;5.70;99.90;;;;;;5138080;27;20042;-63
2024/02/13 02:10:59;;;;;;;19.77;10.88;;;5.80;99.90;;;;;;5141469;27;20383;-64
2024/02/13 02:13:27;;;;;;;17.15;10.00;;;5.80;99.90;;;;;;5129883;27;20031;-64
2024/02/13 02:15:54;;;;;;;17.98;10.30;;;5.80;99.90;;;;;;5137835;27;20046;-64
2024/02/13 02:18:20;;;;;;;21.33;10.07;;;5.80;99.90;;;;;;5137665;27;20189;-63
2024/02/13 02:20:47;;;;;;;19.75;11.43;;;5.70;99.90;;;;;;5138492;27;20054;-64
2024/02/13 02:23:13;;;;;;;23.98;10.80;;;5.70;99.90;;;;;;5139788;27;20578;-64
2024/02/13 02:25:39;;;;;;;19.88;10.77;;;5.80;99.90;;;;;;5139608;27;20051;-64
2024/02/13 02:28:05;;;;;;;16.60;10.40;;;5.70;99.90;;;;;;5135539;27;20562;-64
2024/02/13 02:30:31;;;;;;;23.65;10.98;;;5.80;99.90;;;;;;5140245;27;20065;-64
2024/02/13 02:32:57;;;;;;;20.98;9.80;;;5.70;99.90;;;;;;5138585;27;20755;-64
2024/02/13 02:35:22;;;;;;;26.25;10.68;;;5.70;99.90;;;;;;5136967;27;20043;-64
2024/02/13 02:37:50;;;;;;;20.90;10.85;;;5.70;99.90;;;;;;5136947;27;20074;-63
2024/02/13 02:40:18;;;;;;;16.73;10.52;;;5.60;99.90;;;;;;5137062;27;20042;-64
2024/02/13 02:42:49;;;;;;;16.08;10.52;;;5.70;99.90;;;;;;5139329;27;20035;-64
2024/02/13 02:45:15;;;;;;;18.38;10.88;;;5.60;99.90;;;;;;5136524;27;20498;-64
2024/02/13 02:47:42;;;;;;;20.85;11.27;;;5.70;99.90;;;;;;5140082;27;20050;-64
2024/02/13 02:50:10;;;;;;;19.67;10.98;;;5.60;99.90;;;;;;5138041;27;20106;-64
2024/02/13 02:52:37;;;;;;;17.93;11.27;;;5.60;99.90;;;;;;5137435;27;20581;-64
2024/02/13 02:55:05;;;;;;;17.10;10.48;;;5.60;99.90;;;;;;5119037;27;20395;-63
2024/02/13 02:57:34;;;;;;;18.02;12.07;;;5.50;99.90;;;;;;5136650;27;20635;-63
2024/02/13 02:59:59;;;;;;;21.77;11.93;;;5.50;99.90;;;;;;5139012;27;20498;-63
2024/02/13 03:02:25;;;;;;;22.98;12.27;;;5.50;99.90;;;;;;5139443;27;20039;-63
2024/02/13 03:04:51;;;;;;;20.90;12.07;;;5.50;99.90;;;;;;5141852;27;20038;-63
2024/02/13 03:07:16;;;;;;;20.67;12.65;;;5.40;99.90;;;;;;5143925;27;20146;-64
2024/02/13 03:09:42;;;;;;;19.67;11.82;;;5.50;99.90;;;;;;5139519;27;20475;-64
2024/02/13 03:12:08;;;;;;;23.05;12.77;;;5.50;99.90;;;;;;5141237;27;20042;-64
2024/02/13 03:14:34;;;;;;;23.23;12.38;;;5.40;99.90;;;;;;5122100;27;20042;-64
2024/02/13 03:17:00;;;;;;;19.77;12.43;;;5.40;99.90;;;;;;5143387;27;20070;-64
2024/02/13 03:19:26;;;;;;;24.23;13.27;;;5.40;99.90;;;;;;5139425;27;20135;-64
2024/02/13 03:21:52;;;;;;;24.63;13.40;;;5.40;99.90;;;;;;5142946;27;20055;-64
2024/02/13 03:24:18;;;;;;;26.30;13.73;;;5.40;99.90;;;;;;5139326;27;20041;-63
2024/02/13 03:26:44;;;;;;;26.02;15.45;;;5.30;99.90;;;;;;5141680;27;20034;-64
2024/02/13 03:29:10;;;;;;;23.67;14.10;;;5.30;99.90;;;;;;5140903;27;20191;-64
2024/02/13 03:31:36;;;;;;;27.88;14.77;;;5.30;99.90;;;;;;5141547;27;20038;-64
2024/02/13 03:34:02;;;;;;;29.75;15.27;;;5.40;99.90;;;;;;5139609;27;20053;-64
2024/02/13 03:36:27;;;;;;;20.60;14.15;;;5.30;99.90;;;;;;5141845;27;20507;-64
2024/02/13 03:38:54;;;;;;;25.60;14.43;;;5.00;99.90;;;;;;5142773;27;20061;-64
2024/02/13 03:41:20;;;;;;;29.08;15.68;;;5.40;99.90;;;;;;5122396;27;20070;-65
2024/02/13 03:43:47;;;;;;;27.45;15.35;;;5.30;99.90;;;;;;5126465;27;20133;-64
2024/02/13 03:46:13;;;;;;;24.23;15.07;;;5.30;99.90;;;;;;5122676;27;20095;-64
2024/02/13 03:48:39;;;;;;;26.02;15.48;;;5.30;99.90;;;;;;5139463;27;20046;-64
2024/02/13 03:51:04;;;;;;;25.02;15.15;;;5.30;99.90;;;;;;5139946;27;20039;-64
2024/02/13 03:53:30;;;;;;;27.58;16.20;;;5.30;99.90;;;;;;5121661;27;20122;-64
2024/02/13 03:55:56;;;;;;;30.00;16.52;;;5.30;99.90;;;;;;5141015;27;20039;-64
2024/02/13 03:58:22;;;;;;;27.67;15.55;;;5.30;99.90;;;;;;5142569;27;20163;-64
2024/02/13 04:00:47;;;;;;;25.80;16.88;;;5.30;99.90;;;;;;5141108;27;20039;-63
2024/02/13 04:03:13;;;;;;;23.65;15.00;;;5.30;99.90;;;;;;5143068;27;20121;-64
2024/02/13 04:05:39;;;;;;;23.48;14.85;;;5.30;99.90;;;;;;5138537;27;20590;-64
2024/02/13 04:08:08;;;;;;;25.60;15.95;;;5.30;99.90;;;;;;5140626;27;20593;-64
2024/02/13 04:10:35;;;;;;;25.95;15.38;;;5.30;99.90;;;;;;5141451;27;20102;-64
2024/02/13 04:13:01;;;;;;;22.50;15.40;;;5.30;99.90;;;;;;5140847;27;20562;-64
2024/02/13 04:15:27;;;;;;;24.05;15.25;;;5.30;99.90;;;;;;5139734;27;20249;-64
2024/02/13 04:17:52;;;;;;;27.85;16.17;;;5.30;99.90;;;;;;5141925;27;20097;-64
2024/02/13 04:20:18;;;;;;;23.08;15.45;;;5.30;99.90;;;;;;5123310;27;20126;-64
2024/02/13 04:22:44;;;;;;;26.48;15.73;;;5.20;99.90;;;;;;5141320;27;20038;-63
2024/02/13 04:25:10;;;;;;;27.40;16.10;;;5.20;99.90;;;;;;5140583;27;20039;-63
2024/02/13 04:27:39;;;;;;;26.25;15.18;;;5.20;99.90;;;;;;5139505;27;20034;-63
2024/02/13 04:30:08;;;;;;;21.83;14.90;;;5.20;99.90;;;;;;5138586;27;20042;-63
2024/02/13 04:32:37;;;;;;;26.35;15.25;;;5.20;99.90;;;;;;5122606;27;20061;-65
2024/02/13 04:35:05;;;;;;;21.65;14.80;;;5.20;99.90;;;;;;5138607;27;20912;-63
2024/02/13 04:37:31;;;;;;;22.60;15.43;;;5.20;99.90;;;;;;5141998;27;20055;-63
2024/02/13 04:39:57;;;;;;;23.40;16.00;;;5.20;99.90;;;;;;5138061;27;20046;-63
2024/02/13 04:42:34;;;;;;;25.52;14.90;;;5.20;99.90;;;;;;5140388;27;20558;-63
2024/02/13 04:45:00;;;;;;;23.10;14.98;;;5.20;99.90;;;;;;5136076;27;20583;-63
2024/02/13 04:47:29;;;;;;;21.92;14.65;;;5.20;99.90;;;;;;5139225;27;20074;-63
2024/02/13 04:49:59;;;;;;;26.33;14.77;;;5.20;99.90;;;;;;5140219;27;20787;-63
2024/02/13 04:52:25;;;;;;;21.95;15.05;;;5.30;99.90;;;;;;5138130;27;20297;-63
2024/02/13 04:54:53;;;;;;;22.50;14.85;;;5.20;99.90;;;;;;5140121;27;20061;-63
2024/02/13 04:57:19;;;;;;;23.17;14.15;;;5.20;99.90;;;;;;5138877;27;20057;-64
2024/02/13 04:59:48;;;;;;;27.05;14.73;;;5.20;99.90;;;;;;5139281;27;20077;-63
2024/02/13 05:02:24;;;;;;;25.10;14.88;;;5.20;99.90;;;;;;5139325;27;21088;-63
2024/02/13 05:07:36;;;;;;;24.70;14.60;;;5.20;99.90;;;;;;5139446;27;20514;-63
2024/02/13 05:10:02;;;;;;;21.20;14.65;;;5.20;99.90;;;;;;5139901;27;20440;-63
2024/02/13 05:12:28;;;;;;;24.58;15.90;;;5.20;99.90;;;;;;5137992;27;20076;-63
2024/02/13 05:14:54;;;;;;;23.23;15.88;;;5.20;99.90;;;;;;5135630;27;20046;-63
2024/02/13 05:17:23;;;;;;;25.98;15.20;;;5.20;99.90;;;;;;5137490;27;20047;-63
2024/02/13 05:19:49;;;;;;;25.23;14.52;;;5.10;99.90;;;;;;5138793;27;20122;-63
2024/02/13 05:22:19;;;;;;;24.33;14.85;;;5.20;99.90;;;;;;5140528;27;20594;-63
2024/02/13 05:24:45;;;;;;;30.95;16.35;;;5.10;99.90;;;;;;5119058;27;20041;-63
2024/02/13 05:27:13;;;;;;;27.02;16.30;;;5.00;99.90;;;;;;5137413;27;20080;-63
2024/02/13 05:29:39;;;;;;;26.20;15.95;;;5.00;99.90;;;;;;5136597;27;20150;-63
2024/02/13 05:32:08;;;;;;;27.52;16.05;;;5.00;99.90;;;;;;5139050;27;20526;-63
2024/02/13 05:34:35;;;;;;;26.85;14.90;;;5.00;99.90;;;;;;5138924;27;20117;-63
2024/02/13 05:37:05;;;;;;;24.83;15.65;;;5.00;99.90;;;;;;5120021;27;20045;-63
2024/02/13 05:39:31;;;;;;;24.85;14.90;;;5.00;99.90;;;;;;5120144;27;20529;-63
2024/02/13 05:41:57;;;;;;;27.65;15.55;;;5.00;99.90;;;;;;5138933;27;20475;-63
2024/02/13 05:44:24;;;;;;;26.65;16.15;;;5.00;99.90;;;;;;5139560;27;20045;-63
2024/02/13 05:46:50;;;;;;;27.30;16.00;;;5.00;99.90;;;;;;5138875;27;20234;-63
2024/02/13 05:49:16;;;;;;;24.98;16.05;;;5.00;99.90;;;;;;5141056;27;20036;-63
2024/02/13 05:51:45;;;;;;;28.08;17.08;;;5.10;99.90;;;;;;5117553;27;20043;-63
2024/02/13 05:54:12;;;;;;;25.73;16.63;;;5.10;99.90;;;;;;5137915;27;20043;-63
2024/02/13 05:56:38;;;;;;;24.95;16.23;;;5.10;99.90;;;;;;5139013;27;20038;-63
2024/02/13 05:59:05;;;;;;;30.50;17.23;;;5.10;99.90;;;;;;5131507;27;20050;-63
2024/02/13 06:01:31;;;;;;;23.77;15.50;;;5.10;99.90;;;;;;5136614;27;20665;-64
2024/02/13 06:04:05;;;;;;;23.40;16.38;;;5.10;99.90;;;;;;5118107;27;20046;-63
2024/02/13 06:06:36;;;;;;;27.20;17.23;;;5.10;99.90;;;;;;5138149;27;20031;-63
2024/02/13 06:09:02;;;;;;;26.60;16.45;;;5.10;99.90;;;;;;5138208;27;20030;-64
2024/02/13 06:11:28;;;;;;;23.40;16.80;;;5.10;99.90;;;;;;5118186;27;20104;-64
2024/02/13 06:13:54;;;;;;;27.00;18.60;;;5.20;99.90;;;;;;5137539;27;20193;-64
2024/02/13 06:16:20;;;;;;;23.77;16.70;;;5.20;99.90;;;;;;5129112;27;20042;-64
2024/02/13 06:18:46;;;;;;;27.35;16.73;;;5.20;99.90;;;;;;5131483;27;20070;-64
2024/02/13 06:21:18;;;;;;;25.60;17.15;;;5.20;99.90;;;;;;5122545;27;20030;-63
2024/02/13 06:23:44;;;;;;;28.02;17.50;;;5.20;99.90;;;;;;5119579;27;20090;-64
2024/02/13 06:26:11;;;;;;;26.50;16.55;;;5.20;99.90;;;;;;5139050;27;20160;-63
2024/02/13 06:28:37;;;;;;;27.67;17.52;;;5.30;99.90;;;;;;5119576;27;20854;-63
2024/02/13 06:31:03;;;;;;;28.45;17.75;;;5.20;99.90;;;;;;5140020;27;20050;-63
2024/02/13 06:33:29;;;;;;;27.88;18.73;;;5.30;99.90;;;;;;5138765;27;20038;-63
2024/02/13 06:35:56;;;;;;;26.80;18.48;;;5.30;99.90;;;;;;5130178;27;20046;-64
2024/02/13 06:38:24;;;;;;;26.55;16.83;;;5.30;99.90;;;;;;5145930;27;20066;-63
2024/02/13 06:40:52;;;;;;;28.52;16.52;;;5.30;99.90;;;;;;5140840;27;20030;-63
2024/02/13 06:43:18;;;;;;;27.90;17.83;;;5.30;99.90;;;;;;5141629;27;20034;-64
2024/02/13 06:45:45;;;;;;;26.30;16.33;;;5.30;99.90;;;;;;5140299;27;20043;-64
2024/02/13 06:48:11;;;;;;;29.02;17.02;;;5.30;99.90;;;;;;5140884;27;20107;-64
2024/02/13 06:50:37;;;;;;;24.83;17.60;;;5.20;99.90;;;;;;5139256;27;20034;-63
2024/02/13 06:53:03;;;;;;;24.88;16.38;;;5.20;99.90;;;;;;5138523;27;20656;-63
2024/02/13 06:55:30;;;;;;;28.20;18.23;;;5.20;99.90;;;;;;5140977;27;20039;-63
2024/02/13 06:57:56;;;;;;;29.70;16.88;;;5.20;99.90;;;;;;5139737;27;20402;-63
2024/02/13 07:00:24;;;;;;;21.33;15.57;;;5.30;99.90;;;;;;5139908;27;20066;-63
2024/02/13 07:02:49;;;;;;;26.23;17.38;;;5.30;99.90;;;;;;5139797;27;20569;-63
2024/02/13 07:05:15;;;;;;;26.88;16.13;;;5.20;99.90;;;;;;5138840;27;20049;-64
2024/02/13 07:07:41;;;;;;;20.30;15.40;;;5.30;99.90;;;;;;5140045;27;20141;-64
2024/02/13 07:10:07;;;;;;;26.98;17.05;;;5.20;99.90;;;;;;5139577;27;20030;-64
2024/02/13 07:12:33;;;;;;;23.63;16.67;;;5.30;99.90;;;;;;5141347;27;20048;-63
2024/02/13 07:14:59;;;;;;;26.92;16.60;;;5.30;99.90;;;;;;5139337;27;20529;-63
2024/02/13 07:17:25;;;;;;;23.00;16.60;;;5.30;99.90;;;;;;5140289;27;20752;-63
2024/02/13 07:19:51;;;;;;;25.83;16.30;;;5.30;99.90;;;;;;5139559;27;20045;-64
2024/02/13 07:22:17;;;;;;;23.63;15.82;;;5.40;99.90;;;;;;5139464;27;20490;-63
2024/02/13 07:24:43;;;;;;;30.35;17.08;;;5.30;99.90;;;;;;5139176;27;20027;-63
2024/02/13 07:27:12;;;;;;;23.75;15.38;;;5.40;99.90;;;;;;5140380;27;20031;-63
2024/02/13 07:29:40;;;;;;;24.30;15.30;;;5.50;99.90;;;;;;5137554;27;20129;-63
2024/02/13 07:32:10;;;;;;;24.25;16.00;;;5.40;99.90;;;;;;5143418;27;20153;-63
2024/02/13 07:34:41;;;;;;;25.50;14.88;;;5.40;99.90;;;;;;5140471;27;20051;-63
2024/02/13 07:37:08;;;;;;;23.95;15.00;;;5.50;99.90;;;;;;5137856;27;20044;-63
2024/02/13 07:39:36;;;;;;;22.65;15.25;;;5.50;99.90;;;;;;5138281;27;20042;-63
2024/02/13 07:42:02;;;;;;;28.92;15.70;;;5.50;99.90;;;;;;5137417;27;20554;-63
2024/02/13 07:44:29;;;;;;;21.88;15.18;;;5.50;99.90;;;;;;5140374;27;20581;-63
2024/02/13 07:46:58;;;;;;;21.83;14.43;;;5.50;99.90;;;;;;5140343;27;20038;-66
2024/02/13 07:49:26;;;;;;;22.80;14.52;;;5.50;99.90;;;;;;5141290;27;20547;-62
2024/02/13 07:51:52;;;;;;;23.00;14.95;;;5.50;99.90;;;;;;5143917;27;20053;-63
2024/02/13 07:54:22;;;;;;;26.58;14.70;;;5.50;99.90;;;;;;5142912;27;20053;-63
2024/02/13 07:56:47;;;;;;;;;;;5.50;99.90;;;;;;5137893;27;20565;-64
2024/02/13 07:59:14;;;;;;;24.00;15.07;;;5.50;99.90;;;;;;5135345;27;19925;-63
2024/02/13 08:01:42;;;;;;;26.25;14.98;;;5.50;99.90;;;;;;5142090;27;20533;-63
2024/02/13 08:04:08;;;;;;;24.05;14.75;;;5.50;99.90;;;;;;5139637;27;20056;-63
2024/02/13 08:06:37;;;;;;;25.02;13.82;;;5.60;99.90;;;;;;5141604;27;20037;-63
2024/02/13 08:09:04;;;;;;;21.38;14.07;;;5.60;99.90;;;;;;5139491;27;20038;-62
2024/02/13 08:11:30;;;;;;;20.73;13.45;;;5.70;99.90;;;;;;5118530;27;20034;-63
2024/02/13 08:13:56;;;;;;;24.27;14.00;;;5.70;99.90;;;;;;5139195;27;20513;-63
2024/02/13 08:16:22;;;;;;;26.27;15.38;;;5.70;99.90;;;;;;5139447;27;20578;-63
2024/02/13 08:18:50;;;;;;;21.95;12.98;;;5.80;99.90;;;;;;5137040;27;20051;-61
2024/02/13 08:21:17;;;;;;;20.25;13.93;;;5.80;99.90;;;;;;5141628;27;20039;-63
2024/02/13 08:23:43;;;;;;;24.52;13.02;;;5.80;99.90;;;;;;5139266;27;20035;-62
2024/02/13 08:26:09;;;;;;;21.40;12.43;;;5.90;99.90;;;;;;5138518;27;20042;-62
2024/02/13 08:28:37;;;;;;;23.92;13.52;;;5.90;99.90;;;;;;5139528;27;20563;-63
2024/02/13 08:31:04;;;;;;;18.27;12.50;;;6.00;99.90;;;;;;5140935;27;20027;-63
2024/02/13 08:33:31;;;;;;;21.58;12.57;;;6.00;99.90;;;;;;5141863;27;20088;-63
2024/02/13 08:35:57;;;;;;;25.70;13.15;;;6.10;99.90;;;;;;5141361;27;20304;-63
2024/02/13 08:38:23;;;;;;;23.95;12.80;;;6.10;99.90;;;;;;5140758;27;20039;-62
2024/02/13 08:40:49;;;;;;;20.83;12.80;;;6.20;99.90;;;;;;5140815;27;20513;-63
2024/02/13 08:43:14;;;;;;;26.77;12.98;;;6.20;99.90;;;;;;5141679;27;20046;-64
2024/02/13 08:45:40;;;;;;;21.85;13.32;;;6.20;99.90;;;;;;5140927;27;20185;-63
2024/02/13 08:48:06;;;;;;;23.77;12.05;;;6.30;99.90;;;;;;5138690;27;20035;-62
2024/02/13 08:50:32;;;;;;;23.15;13.70;;;6.30;99.90;;;;;;5139326;27;20087;-63
2024/02/13 08:52:58;;;;;;;22.25;12.98;;;6.40;99.90;;;;;;5141344;27;20038;-63
2024/02/13 08:55:25;;;;;;;26.08;12.07;;;6.40;99.90;;;;;;5120642;27;20035;-63
2024/02/13 08:57:54;;;;;;;30.67;13.38;;;6.40;99.90;;;;;;5141265;27;20042;-63
2024/02/13 09:00:20;;;;;;;23.80;12.48;;;6.50;99.90;;;;;;5138872;27;20043;-63
2024/02/13 09:02:47;;;;;;;27.45;13.32;;;6.50;99.90;;;;;;5140860;27;20582;-63
2024/02/13 09:05:14;;;;;;;21.02;12.32;;;6.60;99.90;;;;;;5122713;27;20055;-63
2024/02/13 09:07:41;;;;;;;23.00;11.95;;;6.60;99.90;;;;;;5141496;27;20035;-63
2024/02/13 09:10:11;;;;;;;23.55;11.50;;;6.70;99.90;;;;;;5136264;27;20594;-63
2024/02/13 09:12:41;;;;;;;16.98;11.30;;;6.70;99.90;;;;;;5137739;27;20479;-63
2024/02/13 09:15:11;;;;;;;26.45;11.13;;;6.80;99.90;;;;;;5137656;27;20395;-68
2024/02/13 09:17:47;;;;;;;26.20;11.52;;;6.80;99.90;;;;;;5116713;27;20491;-63
2024/02/13 09:20:14;;;;;;;31.58;12.23;;;6.90;99.90;;;;;;5139219;27;20053;-63
2024/02/13 09:22:44;;;;;;;20.42;10.95;;;6.90;99.90;;;;;;5137661;27;20042;-63
2024/02/13 09:25:16;;;;;;;20.85;11.00;;;7.00;99.90;;;;;;5139848;27;20091;-62
2024/02/13 09:27:47;;;;;;;18.10;10.98;;;7.00;99.90;;;;;;5139331;27;20074;-64
2024/02/13 09:30:14;;;;;;;22.02;10.40;;;7.10;99.90;;;;;;5136941;27;20520;-63
2024/02/13 09:32:40;;;;;;;20.80;10.32;;;7.10;99.90;;;;;;5139211;27;20708;-62
2024/02/13 09:35:10;;;;;;;18.20;9.63;;;7.20;99.90;;;;;;5137441;27;20030;-63
2024/02/13 09:37:39;;;;;;;19.73;10.25;;;7.30;99.90;;;;;;5138838;27;20099;-63
2024/02/13 09:40:13;;;;;;;17.08;9.85;;;7.30;99.90;;;;;;5142560;27;20074;-62
2024/02/13 09:42:42;;;;;;;18.73;10.18;;;7.40;99.90;;;;;;5139455;27;20046;-62
2024/02/13 09:45:10;;;;;;;21.92;9.90;;;7.40;99.90;;;;;;5139025;27;20150;-62
2024/02/13 09:47:42;;;;;;;18.55;10.68;;;7.40;99.90;;;;;;5139134;27;20034;-63
2024/02/13 09:50:12;;;;;;;21.05;9.65;;;7.50;99.90;;;;;;5139273;27;20043;-63
2024/02/13 09:52:51;;;;;;;20.67;9.75;;;7.50;99.90;;;;;;5142113;27;20922;-63
2024/02/13 09:55:18;;;;;;;19.17;10.10;;;7.50;99.90;;;;;;5140668;27;20046;-63
2024/02/13 09:57:45;;;;;;;21.83;9.57;;;7.60;99.90;;;;;;5140563;27;20034;-63
2024/02/13 10:00:17;;;;;;;13.27;8.98;;;7.60;99.90;;;;;;5139773;27;20035;-63
2024/02/13 10:02:44;;;;;;;16.17;8.90;;;7.60;99.90;;;;;;5141576;27;20034;-62
2024/02/13 10:05:11;;;;;;;21.20;9.18;;;7.70;99.90;;;;;;5141888;27;20066;-63
2024/02/13 10:07:38;;;;;;;17.55;9.00;;;7.70;99.90;;;;;;5141315;27;20031;-63
2024/02/13 10:10:11;;;;;;;20.77;9.70;;;7.70;99.90;;;;;;5139897;27;20050;-63
2024/02/13 10:13:00;;;;;;;17.77;8.27;;;7.80;99.90;;;;;;5139197;27;20090;-63
2024/02/13 10:15:45;;;;;;;15.63;7.80;;;7.90;99.90;;;;;;5140077;27;20508;-63
2024/02/13 10:18:13;;;;;;;20.15;8.32;;;7.90;99.90;;;;;;5141915;27;20046;-63
2024/02/13 10:20:43;;;;;;;17.25;8.75;;;8.00;99.90;;;;;;5138825;27;20050;-63
2024/02/13 10:23:13;;;;;;;25.15;8.82;;;8.00;99.90;;;;;;5139578;27;20038;-63
2024/02/13 10:25:42;;;;;;;18.95;8.05;;;8.10;99.90;;;;;;5139104;27;20502;-63
2024/02/13 10:28:11;;;;;;;21.60;8.00;;;8.10;99.90;;;;;;5133703;27;20475;-63
2024/02/13 10:30:37;;;;;;;13.15;7.65;;;8.20;99.90;;;;;;5135837;27;20145;-63
2024/02/13 10:33:09;;;;;;;20.92;7.40;;;8.30;99.90;;;;;;5133927;27;20038;-62
2024/02/13 10:35:36;;;;;;;15.43;7.20;;;8.50;99.90;;;;;;5135619;27;20295;-63
2024/02/13 10:38:07;;;;;;;21.08;8.18;;;8.40;99.90;;;;;;5137515;27;20039;-62
2024/02/13 10:40:40;;;;;;;15.55;7.80;;;8.40;99.90;;;;;;5136089;27;20678;-62
2024/02/13 10:43:12;;;;;;;16.02;7.30;;;8.40;99.90;;;;;;5136638;27;20117;-63
2024/02/13 10:45:38;;;;;;;13.13;7.07;;;8.40;99.90;;;;;;5133606;27;20046;-62
2024/02/13 10:48:13;;;;;;;17.83;7.38;;;8.40;99.90;;;;;;5136650;27;20066;-63
2024/02/13 10:50:40;;;;;;;15.68;7.72;;;8.50;99.90;;;;;;5135922;27;20038;-62
2024/02/13 10:53:07;;;;;;;17.80;7.18;;;8.50;99.90;;;;;;5131856;27;20046;-63
2024/02/13 10:55:34;;;;;;;18.77;7.32;;;8.60;99.90;;;;;;5133223;27;20734;-63
2024/02/13 10:58:00;;;;;;;12.02;6.72;;;8.60;99.90;;;;;;5140169;27;20058;-63
2024/02/13 11:00:28;;;;;;;13.95;6.85;;;8.60;99.90;;;;;;5117862;27;20661;-63
2024/02/13 11:02:55;;;;;;;16.67;6.63;;;8.70;99.90;;;;;;5135017;27;20039;-63
2024/02/13 11:05:27;;;;;;;18.23;6.97;;;8.70;99.90;;;;;;5132932;27;20087;-63
2024/02/13 11:07:54;;;;;;;17.25;6.18;;;8.80;99.90;;;;;;5137653;27;20060;-63
2024/02/13 11:10:29;;;;;;;11.82;5.45;;;8.80;99.90;;;;;;5116918;27;20700;-63
2024/02/13 11:12:55;;;;;;;12.85;5.70;;;8.80;99.90;;;;;;5137022;27;20066;-64
2024/02/13 11:15:21;;;;;;;16.77;6.10;;;8.80;99.90;;;;;;5139990;27;20150;-63
2024/02/13 11:17:52;;;;;;;10.23;6.22;;;8.90;99.90;;;;;;5132444;27;20292;-63
2024/02/13 11:20:25;;;;;;;13.00;5.78;;;8.80;99.90;;;;;;5134761;27;20043;-63
2024/02/13 11:22:52;;;;;;;17.13;6.70;;;8.80;99.90;;;;;;5132942;27;20581;-63
2024/02/13 11:25:18;;;;;;;12.13;6.18;;;8.90;99.90;;;;;;5136356;27;20356;-63
2024/02/13 11:27:46;;;;;;;10.98;5.55;;;8.90;99.90;;;;;;5136843;27;20641;-63
2024/02/13 11:30:26;;;;;;;16.85;5.88;;;8.90;99.90;;;;;;5141818;27;20402;-63
2024/02/13 11:33:01;;;;;;;13.38;5.65;;;8.90;99.90;;;;;;5142290;27;20038;-63
2024/02/13 11:35:47;;;;;;;15.85;5.60;;;8.90;99.90;;;;;;5141131;27;20046;-62
2024/02/13 11:38:25;;;;;;;13.93;5.93;;;8.90;99.90;;;;;;5139193;27;20117;-63
2024/02/13 11:40:55;;;;;;;13.50;5.32;;;8.90;99.90;;;;;;5139801;27;20047;-63
2024/02/13 11:43:28;;;;;;;13.27;4.40;;;8.90;99.90;;;;;;5138378;27;20746;-63
2024/02/13 11:46:00;;;;;;;8.43;3.72;;;8.90;99.90;;;;;;5139602;27;20399;-63
2024/02/13 11:48:26;;;;;;;14.43;3.85;;;8.90;99.90;;;;;;5143047;27;20100;-63
2024/02/13 11:50:55;;;;;;;11.13;4.13;;;8.90;99.90;;;;;;5140355;27;20070;-63
2024/02/13 11:53:28;;;;;;;13.18;3.75;;;9.00;99.90;;;;;;5140832;27;20502;-63
2024/02/13 11:55:54;;;;;;;14.52;4.20;;;9.00;99.90;;;;;;5139359;27;20562;-63
2024/02/13 11:58:22;;;;;;;11.35;3.92;;;9.00;99.90;;;;;;5120847;27;20077;-63
2024/02/13 12:01:04;;;;;;;15.07;3.95;;;8.90;99.90;;;;;;5143213;27;20088;-63
2024/02/13 12:03:32;;;;;;;14.25;4.32;;;9.00;99.90;;;;;;5138117;27;20042;-62
2024/02/13 12:06:00;;;;;;;15.30;4.78;;;9.00;99.90;;;;;;5142817;27;20130;-63
2024/02/13 12:08:28;;;;;;;10.85;3.90;;;9.10;99.90;;;;;;5137429;27;20058;-63
2024/02/13 12:10:57;;;;;;;14.03;4.30;;;9.10;99.90;;;;;;5143221;27;20035;-62
2024/02/13 12:13:23;;;;;;;;;;;9.10;99.90;;;;;;5137724;27;20223;-63
2024/02/13 12:15:49;;;;;;;8.32;3.65;;;9.20;99.90;;;;;;5143142;27;19948;-62
2024/02/13 12:18:19;;;;;;;9.02;4.35;;;9.20;99.90;;;;;;5143554;27;20039;-62
2024/02/13 12:20:52;;;;;;;18.13;4.35;;;9.30;99.90;;;;;;5141909;27;20046;-63
2024/02/13 12:23:18;;;;;;;15.40;4.93;;;9.30;99.90;;;;;;5143347;27;20050;-63
2024/02/13 12:25:49;;;;;;;21.75;4.07;;;9.40;99.90;;;;;;5141797;27;20041;-63
2024/02/13 12:28:18;;;;;;;13.05;3.83;;;9.40;99.90;;;;;;5138901;27;20527;-65
2024/02/13 12:30:48;;;;;;;;;;;9.50;99.90;;;;;;5140546;27;20153;-64
2024/02/13 12:33:22;;;;;;;11.35;4.03;;;9.60;99.90;;;;;;5142525;27;19922;-62
2024/02/13 12:36:07;;;;;;;12.18;4.43;;;9.60;99.90;;;;;;5140641;27;20142;-63
2024/02/13 12:38:37;;;;;;;10.18;3.75;;;9.70;99.90;;;;;;5140882;27;20039;-62
2024/02/13 12:41:06;;;;;;;8.10;3.60;;;9.80;99.90;;;;;;5117734;27;20491;-62
2024/02/13 12:43:32;;;;;;;11.35;3.35;;;9.90;99.90;;;;;;5135430;27;20049;-63
2024/02/13 12:46:02;;;;;;;13.23;4.45;;;10.00;99.90;;;;;;5135546;27;20034;-65
2024/02/13 12:48:31;;;;;;;11.73;4.07;;;10.00;99.90;;;;;;5138579;27;20043;-63